createdAt,value
2018-06-19T00:00:49.185Z,101317.50
2018-06-19T00:03:54.927Z,101320.30
2018-06-19T00:07:00.482Z,101310.46
2018-06-19T00:10:05.431Z,101317.33
2018-06-19T00:13:11.258Z,101316.70
2018-06-19T00:16:16.736Z,101313.91
2018-06-19T00:19:21.762Z,101321.23
2018-06-19T00:22:27.572Z,101322.36
2018-06-19T00:25:34.557Z,101324.48
2018-06-19T00:28:42.625Z,101328.02
2018-06-19T00:31:48.660Z,101326.61
2018-06-19T00:34:55.750Z,101321.42
2018-06-19T00:38:01.941Z,101321.27
2018-06-19T00:41:08.701Z,101316.34
2018-06-19T00:44:14.685Z,101320.43
2018-06-19T00:47:20.697Z,101316.91
2018-06-19T00:50:27.545Z,101324.76
2018-06-19T00:53:33.519Z,101317.38
2018-06-19T00:56:48.886Z,101319.04
2018-06-19T00:59:54.612Z,101327.39
2018-06-19T01:03:00.476Z,101331.64
2018-06-19T01:06:06.308Z,101321.27
2018-06-19T01:09:12.591Z,101328.16
2018-06-19T01:12:18.017Z,101330.08
2018-06-19T01:15:23.158Z,101329.45
2018-06-19T01:18:28.725Z,101325.03
2018-06-19T01:21:34.860Z,101324.36
2018-06-19T01:24:40.128Z,101321.97
2018-06-19T01:27:46.252Z,101318.74
2018-06-19T01:30:51.808Z,101318.17
2018-06-19T01:33:56.950Z,101316.31
2018-06-19T01:37:02.148Z,101315.88
2018-06-19T01:40:07.269Z,101309.20
2018-06-19T01:43:12.589Z,101316.23
2018-06-19T01:46:19.112Z,101315.59
2018-06-19T01:49:24.225Z,101303.00
2018-06-19T01:52:30.860Z,101296.72
2018-06-19T01:55:37.627Z,101303.02
2018-06-19T01:58:43.416Z,101307.00
2018-06-19T02:01:50.337Z,101299.86
2018-06-19T02:04:56.157Z,101300.98
2018-06-19T02:08:01.238Z,101299.31
2018-06-19T02:11:06.548Z,101301.27
2018-06-19T02:14:11.653Z,101290.97
2018-06-19T02:17:16.727Z,101299.67
2018-06-19T02:20:22.708Z,101300.02
2018-06-19T02:23:27.804Z,101303.34
2018-06-19T02:26:32.864Z,101296.69
2018-06-19T02:29:37.952Z,101291.30
2018-06-19T02:32:44.068Z,101291.49
2018-06-19T02:35:50.395Z,101288.73
2018-06-19T02:38:56.553Z,101282.72
2018-06-19T02:42:01.877Z,101281.42
2018-06-19T02:45:08.932Z,101289.25
2018-06-19T02:48:14.061Z,101298.87
2018-06-19T02:51:19.864Z,101290.73
2018-06-19T02:54:25.880Z,101294.06
2018-06-19T02:57:30.995Z,101292.77
2018-06-19T03:00:37.180Z,101289.72
2018-06-19T03:03:42.987Z,101292.15
2018-06-19T03:06:48.053Z,101290.08
2018-06-19T03:09:53.882Z,101283.55
2018-06-19T03:12:59.945Z,101283.55
2018-06-19T03:16:04.995Z,101286.51
2018-06-19T03:19:11.261Z,101293.08
2018-06-19T03:22:17.361Z,101289.56
2018-06-19T03:25:23.828Z,101287.25
2018-06-19T03:28:28.920Z,101295.65
2018-06-19T03:31:34.012Z,101292.59
2018-06-19T03:34:39.093Z,101292.41
2018-06-19T03:37:44.172Z,101295.77
2018-06-19T03:40:49.253Z,101300.84
2018-06-19T03:43:54.365Z,101300.59
2018-06-19T03:46:59.425Z,101307.96
2018-06-19T03:50:04.508Z,101311.53
2018-06-19T03:53:09.449Z,101313.56
2018-06-19T03:56:15.060Z,101317.25
2018-06-19T03:59:20.148Z,101315.95
2018-06-19T04:02:26.073Z,101315.39
2018-06-19T04:05:31.540Z,101311.87
2018-06-19T04:08:36.992Z,101314.31
2018-06-19T04:11:42.820Z,101317.63
2018-06-19T04:14:48.517Z,101316.24
2018-06-19T04:17:54.527Z,101318.27
2018-06-19T04:20:59.632Z,101323.26
2018-06-19T04:24:13.803Z,101320.67
2018-06-19T04:27:37.736Z,101322.17
2018-06-19T04:30:54.805Z,101319.48
2018-06-19T04:34:00.426Z,101321.52
2018-06-19T04:37:05.641Z,101312.81
2018-06-19T04:40:10.795Z,101314.01
2018-06-19T04:43:15.937Z,101314.68
2018-06-19T04:46:21.090Z,101313.28
2018-06-19T04:49:26.943Z,101304.58
2018-06-19T04:52:32.229Z,101309.94
2018-06-19T04:55:38.367Z,101315.02
2018-06-19T04:58:44.574Z,101311.06
2018-06-19T05:01:49.701Z,101314.75
2018-06-19T05:04:55.444Z,101313.00
2018-06-19T05:08:01.850Z,101309.02
2018-06-19T05:11:07.183Z,101304.09
2018-06-19T05:14:12.307Z,101310.88
2018-06-19T05:17:17.405Z,101315.02
2018-06-19T05:20:27.817Z,101319.64
2018-06-19T05:23:34.128Z,101316.02
2018-06-19T05:26:39.210Z,101298.98
2018-06-19T05:29:44.293Z,101302.23
2018-06-19T05:32:49.444Z,101303.80
2018-06-19T05:35:55.552Z,101309.61
2018-06-19T05:39:00.624Z,101307.21
2018-06-19T05:42:05.820Z,101313.02
2018-06-19T05:45:10.892Z,101320.61
2018-06-19T05:48:15.976Z,101319.50
2018-06-19T05:51:21.964Z,101321.79
2018-06-19T05:54:26.791Z,101331.96
2018-06-19T05:57:31.877Z,101340.77
2018-06-19T06:00:37.298Z,101332.71
2018-06-19T06:03:42.383Z,101337.23
2018-06-19T06:06:47.481Z,101341.20
2018-06-19T06:09:52.530Z,101344.80
2018-06-19T06:12:57.653Z,101351.58
2018-06-19T06:16:03.109Z,101347.38
2018-06-19T06:19:08.967Z,101359.67
2018-06-19T06:22:15.102Z,101355.25
2018-06-19T06:25:20.163Z,101366.35
2018-06-19T06:28:25.852Z,101360.39
2018-06-19T06:31:31.919Z,101359.81
2018-06-19T06:34:36.964Z,101356.22
2018-06-19T06:37:42.432Z,101368.87
2018-06-19T06:40:49.496Z,101366.44
2018-06-19T06:43:54.619Z,101375.25
2018-06-19T06:46:59.403Z,101373.27
2018-06-19T06:50:04.932Z,101372.59
2018-06-19T06:53:10.025Z,101381.77
2018-06-19T06:56:15.093Z,101375.89
2018-06-19T06:59:20.195Z,101382.46
2018-06-19T07:02:26.005Z,101381.31
2018-06-19T07:05:31.475Z,101384.45
2018-06-19T07:08:37.465Z,101378.01
2018-06-19T07:11:42.527Z,101381.97
2018-06-19T07:14:47.625Z,101396.23
2018-06-19T07:17:52.696Z,101403.37
2018-06-19T07:20:57.815Z,101402.95
2018-06-19T07:24:02.921Z,101402.19
2018-06-19T07:27:08.012Z,101412.15
2018-06-19T07:30:13.892Z,101411.75
2018-06-19T07:33:20.561Z,101425.86
2018-06-19T07:36:26.524Z,101424.27
2018-06-19T07:39:32.292Z,101413.91
2018-06-19T07:42:38.387Z,101422.95
2018-06-19T07:45:44.457Z,101427.36
2018-06-19T07:48:49.708Z,101429.55
2018-06-19T07:51:54.915Z,101428.09
2018-06-19T07:55:00.878Z,101420.67
2018-06-19T07:58:07.323Z,101433.37
2018-06-19T08:01:13.219Z,101438.25
2018-06-19T08:04:19.548Z,101445.75
2018-06-19T08:07:25.498Z,101454.08
2018-06-19T08:10:31.311Z,101458.87
2018-06-19T08:13:37.296Z,101470.59
2018-06-19T08:16:44.160Z,101462.95
2018-06-19T08:19:49.670Z,101472.67
2018-06-19T08:22:54.918Z,101472.33
2018-06-19T08:26:00.943Z,101475.81
2018-06-19T08:29:06.938Z,101484.12
2018-06-19T08:32:12.771Z,101491.73
2018-06-19T08:35:18.380Z,101493.52
2018-06-19T08:38:25.447Z,101501.11
2018-06-19T08:41:31.517Z,101492.35
2018-06-19T08:44:38.257Z,101489.91
2018-06-19T08:47:43.372Z,101492.40
2018-06-19T08:50:48.882Z,101491.70
2018-06-19T08:53:53.976Z,101495.84
2018-06-19T08:56:59.594Z,101497.67
2018-06-19T09:00:05.616Z,101502.42
2018-06-19T09:03:11.897Z,101509.91
2018-06-19T09:06:18.252Z,101513.95
2018-06-19T09:09:23.992Z,101521.18
2018-06-19T09:12:30.059Z,101532.34
2018-06-19T09:15:35.140Z,101530.56
2018-06-19T09:18:39.912Z,101533.17
2018-06-19T09:21:46.776Z,101534.56
2018-06-19T09:24:52.976Z,101536.09
2018-06-19T09:27:58.999Z,101532.77
2018-06-19T09:31:04.092Z,101535.85
2018-06-19T09:34:09.435Z,101531.11
2018-06-19T09:37:14.848Z,101527.44
2018-06-19T09:40:19.926Z,101524.83
2018-06-19T09:43:25.356Z,101533.20
2018-06-19T09:46:32.224Z,101534.73
2018-06-19T09:49:38.479Z,101540.89
2018-06-19T09:52:45.403Z,101541.11
2018-06-19T09:55:50.952Z,101530.17
2018-06-19T09:58:56.997Z,101530.05
2018-06-19T10:02:02.701Z,101540.46
2018-06-19T10:05:08.925Z,101538.55
2018-06-19T10:08:15.125Z,101541.58
2018-06-19T10:11:20.197Z,101541.22
2018-06-19T10:14:25.881Z,101547.38
2018-06-19T10:17:32.141Z,101543.22
2018-06-19T10:20:37.286Z,101553.27
2018-06-19T10:23:43.280Z,101559.42
2018-06-19T10:26:49.129Z,101562.69
2018-06-19T10:29:54.223Z,101566.70
2018-06-19T10:32:59.644Z,101560.89
2018-06-19T10:36:06.883Z,101557.93
2018-06-19T10:39:12.895Z,101558.41
2018-06-19T10:42:18.917Z,101555.69
2018-06-19T10:45:24.396Z,101550.84
2018-06-19T10:48:29.509Z,101550.62
2018-06-19T10:51:36.204Z,101559.42
2018-06-19T10:54:42.013Z,101559.20
2018-06-19T10:57:46.852Z,101558.62
2018-06-19T11:00:51.697Z,101561.00
2018-06-19T11:03:57.635Z,101563.02
2018-06-19T11:07:02.901Z,101564.12
2018-06-19T11:10:08.814Z,101563.31
2018-06-19T11:13:13.644Z,101556.58
2018-06-19T11:16:18.835Z,101561.95
2018-06-19T11:19:25.000Z,101561.14
2018-06-19T11:22:30.243Z,101562.84
2018-06-19T11:25:35.988Z,101562.78
2018-06-19T11:28:40.957Z,101567.45
2018-06-19T11:31:46.496Z,101561.45
2018-06-19T11:34:51.675Z,101570.34
2018-06-19T11:37:56.987Z,101566.13
2018-06-19T11:41:02.705Z,101555.39
2018-06-19T11:44:09.423Z,101557.80
2018-06-19T11:47:15.153Z,101553.80
2018-06-19T11:50:19.980Z,101552.37
2018-06-19T11:53:25.147Z,101554.54
2018-06-19T11:56:31.224Z,101564.61
2018-06-19T11:59:37.260Z,101557.88
2018-06-19T12:02:42.995Z,101554.69
2018-06-19T12:05:48.389Z,101558.36
2018-06-19T12:08:54.468Z,101558.36
2018-06-19T12:11:59.256Z,101569.36
2018-06-19T12:15:04.674Z,101578.96
2018-06-19T12:18:10.563Z,101575.29
2018-06-19T12:21:15.929Z,101578.96
2018-06-19T12:24:21.665Z,101577.16
2018-06-19T12:27:26.497Z,101584.27
2018-06-19T12:30:31.315Z,101592.33
2018-06-19T12:33:37.075Z,101592.56
2018-06-19T12:36:42.245Z,101589.20
2018-06-19T12:39:47.048Z,101600.59
2018-06-19T12:42:52.394Z,101601.77
2018-06-19T12:45:57.415Z,101605.95
2018-06-19T12:49:03.154Z,101601.22
2018-06-19T12:52:20.447Z,101592.23
2018-06-19T12:55:37.342Z,101595.44
2018-06-19T12:58:42.688Z,101597.22
2018-06-19T13:01:47.493Z,101605.31
2018-06-19T13:05:03.551Z,101598.91
2018-06-19T13:08:09.384Z,101597.72
2018-06-19T13:11:14.234Z,101606.27
2018-06-19T13:14:43.955Z,101612.22
2018-06-19T13:18:00.856Z,101619.48
2018-06-19T13:21:07.072Z,101626.72
2018-06-19T13:24:12.668Z,101624.34
2018-06-19T13:27:17.881Z,101623.87
2018-06-19T13:30:35.025Z,101623.40
2018-06-19T13:33:40.754Z,101626.63
2018-06-19T13:36:46.466Z,101616.78
2018-06-19T13:41:04.827Z,101619.98
2018-06-19T13:44:20.813Z,101625.11
2018-06-19T13:47:25.637Z,101625.22
2018-06-19T13:50:31.336Z,101627.97
2018-06-19T13:53:36.881Z,101626.78
2018-06-19T13:56:50.588Z,101625.97
2018-06-19T13:59:55.963Z,101626.44
2018-06-19T14:03:00.766Z,101635.69
2018-06-19T14:06:05.996Z,101640.58
2018-06-19T14:09:22.596Z,101634.75
2018-06-19T14:12:38.356Z,101637.36
2018-06-19T14:15:47.196Z,101630.00
2018-06-19T14:18:52.749Z,101643.17
2018-06-19T14:21:58.492Z,101650.67
2018-06-19T14:25:04.866Z,101643.19
2018-06-19T14:28:11.108Z,101654.11
2018-06-19T14:31:16.832Z,101663.48
2018-06-19T14:34:22.167Z,101659.09
2018-06-19T14:37:28.029Z,101664.55
2018-06-19T14:40:33.814Z,101655.75
2018-06-19T14:43:39.013Z,101661.45
2018-06-19T14:46:44.848Z,101658.72
2018-06-19T14:49:49.987Z,101663.59
2018-06-19T14:52:54.800Z,101663.71
2018-06-19T14:56:00.228Z,101671.67
2018-06-19T14:59:05.183Z,101669.78
2018-06-19T15:02:09.977Z,101673.83
2018-06-19T15:05:15.289Z,101674.39
2018-06-19T15:08:20.104Z,101666.46
2018-06-19T15:11:25.402Z,101678.78
2018-06-19T15:14:31.459Z,101680.92
2018-06-19T15:17:37.247Z,101678.78
2018-06-19T15:20:44.011Z,101678.30
2018-06-19T15:23:48.869Z,101669.77
2018-06-19T15:26:54.502Z,101680.69
2018-06-19T15:30:00.252Z,101685.08
2018-06-19T15:33:06.886Z,101686.62
2018-06-19T15:36:13.616Z,101679.61
2018-06-19T15:39:20.720Z,101690.89
2018-06-19T15:42:26.327Z,101692.94
2018-06-19T15:45:32.083Z,101692.45
2018-06-19T15:48:38.332Z,101696.27
2018-06-19T15:51:43.571Z,101702.20
2018-06-19T15:54:48.744Z,101695.80
2018-06-19T15:57:54.482Z,101684.87
2018-06-19T16:00:59.543Z,101683.48
2018-06-19T16:04:04.788Z,101690.59
2018-06-19T16:07:09.607Z,101686.30
2018-06-19T16:10:14.433Z,101685.13
2018-06-19T16:13:20.157Z,101696.52
2018-06-19T16:16:25.491Z,101696.52
2018-06-19T16:19:31.545Z,101696.64
2018-06-19T16:22:37.246Z,101689.28
2018-06-19T16:25:42.972Z,101693.68
2018-06-19T16:28:48.292Z,101690.36
2018-06-19T16:31:54.984Z,101692.00
2018-06-19T16:35:00.443Z,101691.42
2018-06-19T16:38:07.199Z,101692.50
2018-06-19T16:41:11.992Z,101698.30
2018-06-19T16:44:17.633Z,101706.34
2018-06-19T16:47:23.180Z,101717.39
2018-06-19T16:50:30.051Z,101714.42
2018-06-19T16:53:34.848Z,101709.92
2018-06-19T16:56:40.614Z,101713.34
2018-06-19T16:59:46.459Z,101715.48
2018-06-19T17:02:51.570Z,101714.54
2018-06-19T17:05:56.401Z,101718.70
2018-06-19T17:09:01.214Z,101707.75
2018-06-19T17:12:06.039Z,101716.78
2018-06-19T17:15:13.036Z,101706.78
2018-06-19T17:18:17.907Z,101712.61
2018-06-19T17:21:23.176Z,101720.32
2018-06-19T17:24:29.075Z,101718.03
2018-06-19T17:27:34.787Z,101717.09
2018-06-19T17:30:40.123Z,101714.92
2018-06-19T17:33:44.922Z,101716.70
2018-06-19T17:36:50.631Z,101724.02
2018-06-19T17:39:56.110Z,101716.66
2018-06-19T17:43:01.780Z,101710.22
2018-06-19T17:46:07.107Z,101705.88
2018-06-19T17:49:12.944Z,101714.53
2018-06-19T17:52:18.796Z,101705.95
2018-06-19T17:55:24.500Z,101714.48
2018-06-19T17:58:30.348Z,101706.73
2018-06-19T18:01:35.186Z,101711.30
2018-06-19T18:04:40.529Z,101712.70
2018-06-19T18:07:45.347Z,101713.95
2018-06-19T18:10:51.337Z,101712.75
2018-06-19T18:13:57.821Z,101706.30
2018-06-19T18:17:03.041Z,101704.97
2018-06-19T18:20:08.780Z,101705.03
2018-06-19T18:23:14.125Z,101711.59
2018-06-19T18:26:18.935Z,101710.23
2018-06-19T18:29:24.551Z,101705.91
2018-06-19T18:32:30.283Z,101703.64
2018-06-19T18:35:35.076Z,101707.95
2018-06-19T18:38:40.739Z,101708.75
2018-06-19T18:41:47.024Z,101713.42
2018-06-19T18:44:53.248Z,101713.76
2018-06-19T18:47:58.457Z,101710.72
2018-06-19T18:51:03.468Z,101724.54
2018-06-19T18:54:08.304Z,101721.03
2018-06-19T18:57:13.307Z,101720.52
2018-06-19T19:00:18.789Z,101725.19
2018-06-19T19:03:24.001Z,101718.64
2018-06-19T19:06:28.784Z,101719.50
2018-06-19T19:09:34.594Z,101729.03
2018-06-19T19:12:40.475Z,101727.76
2018-06-19T19:15:51.149Z,101733.72
2018-06-19T19:19:01.836Z,101736.13
2018-06-19T19:22:06.851Z,101739.25
2018-06-19T19:25:13.357Z,101745.30
2018-06-19T19:28:23.466Z,101741.63
2018-06-19T19:31:29.959Z,101751.87
2018-06-19T19:34:35.388Z,101759.94
2018-06-19T19:37:45.568Z,101762.11
2018-06-19T19:40:51.319Z,101760.35
2018-06-19T19:43:56.820Z,101768.63
2018-06-19T19:47:07.354Z,101772.45
2018-06-19T19:50:13.230Z,101777.19
2018-06-19T19:53:18.152Z,101778.14
2018-06-19T19:56:29.156Z,101780.17
2018-06-19T19:59:35.009Z,101782.97
2018-06-19T20:02:40.580Z,101786.09
2018-06-19T20:05:45.392Z,101785.23
2018-06-19T20:08:51.479Z,101791.00
2018-06-19T20:11:58.161Z,101786.72
2018-06-19T20:15:04.264Z,101791.73
2018-06-19T20:18:09.447Z,101783.45
2018-06-19T20:21:15.516Z,101786.90
2018-06-19T20:24:20.325Z,101786.05
2018-06-19T20:27:26.788Z,101788.61
2018-06-19T20:30:32.927Z,101800.02
2018-06-19T20:33:40.726Z,101800.48
2018-06-19T20:36:47.512Z,101807.77
2018-06-19T20:39:52.729Z,101810.89
2018-06-19T20:42:58.035Z,101803.94
2018-06-19T20:46:03.521Z,101806.03
2018-06-19T20:49:08.923Z,101808.12
2018-06-19T20:52:14.628Z,101812.25
2018-06-19T20:55:19.909Z,101806.73
2018-06-19T20:58:24.727Z,101802.27
2018-06-19T21:01:29.569Z,101812.42
2018-06-19T21:04:35.748Z,101806.81
2018-06-19T21:07:40.952Z,101807.16
2018-06-19T21:10:45.955Z,101810.08
2018-06-19T21:13:51.343Z,101807.28
2018-06-19T21:16:57.517Z,101809.81
2018-06-19T21:20:02.317Z,101806.28
2018-06-19T21:23:07.565Z,101804.75
2018-06-19T21:26:13.594Z,101806.39
2018-06-19T21:29:18.476Z,101809.06
2018-06-19T21:32:24.061Z,101816.31
2018-06-19T21:35:29.459Z,101812.06
2018-06-19T21:38:35.992Z,101817.88
2018-06-19T21:41:41.123Z,101812.95
2018-06-19T21:44:45.948Z,101822.40
2018-06-19T21:47:51.704Z,101823.48
2018-06-19T21:50:57.259Z,101828.39
2018-06-19T21:54:04.036Z,101829.47
2018-06-19T21:57:09.494Z,101830.06
2018-06-19T22:00:15.473Z,101829.39
2018-06-19T22:03:20.952Z,101823.63
2018-06-19T22:06:27.667Z,101827.26
2018-06-19T22:09:32.901Z,101817.61
2018-06-19T22:12:38.650Z,101819.20
2018-06-19T22:15:44.190Z,101814.48
2018-06-19T22:18:49.656Z,101821.19
2018-06-19T22:21:55.193Z,101815.39
2018-06-19T22:25:00.903Z,101805.36
2018-06-19T22:28:06.459Z,101808.53
2018-06-19T22:31:11.268Z,101807.55
2018-06-19T22:34:17.082Z,101811.52
2018-06-19T22:37:21.880Z,101806.04
2018-06-19T22:40:28.579Z,101810.66
2018-06-19T22:43:33.357Z,101801.01
2018-06-19T22:46:38.696Z,101798.84
2018-06-19T22:49:44.731Z,101793.45
2018-06-19T22:52:50.329Z,101789.95
2018-06-19T22:55:57.260Z,101800.61
2018-06-19T22:59:02.060Z,101797.31
2018-06-19T23:02:07.784Z,101798.00
2018-06-19T23:05:12.872Z,101794.40
2018-06-19T23:08:18.423Z,101786.80
2018-06-19T23:11:24.929Z,101780.11
2018-06-19T23:14:30.915Z,101784.11
2018-06-19T23:17:36.988Z,101786.16
2018-06-19T23:20:42.100Z,101787.00
2018-06-19T23:23:48.104Z,101782.60
2018-06-19T23:26:55.092Z,101787.54
2018-06-19T23:30:01.293Z,101792.78
2018-06-19T23:33:06.524Z,101787.81
2018-06-19T23:36:12.001Z,101788.49
2018-06-19T23:39:17.982Z,101783.06
2018-06-19T23:42:23.748Z,101783.28
2018-06-19T23:45:29.773Z,101787.04
2018-06-19T23:48:34.863Z,101787.50
2018-06-19T23:51:40.760Z,101778.75
2018-06-19T23:54:46.776Z,101779.97
2018-06-19T23:57:53.096Z,101783.64
